sensor_id;sensor_type;location;lat;lon;timestamp;P1;durP1;ratioP1;P2;durP2;ratioP2
76593;SDS011;65482;50.240;14.302;2023-12-07T00:00:58;93.13;;;35.53;;
76593;SDS011;65482;50.240;14.302;2023-12-07T00:03:31;86.75;;;37.22;;
76593;SDS011;65482;50.240;14.302;2023-12-07T00:05:57;89.63;;;36.55;;
76593;SDS011;65482;50.240;14.302;2023-12-07T00:08:23;90.72;;;36.83;;
76593;SDS011;65482;50.240;14.302;2023-12-07T00:10:48;93.43;;;36.17;;
76593;SDS011;65482;50.240;14.302;2023-12-07T00:13:14;94.07;;;39.05;;
76593;SDS011;65482;50.240;14.302;2023-12-07T00:15:39;91.07;;;37.40;;
76593;SDS011;65482;50.240;14.302;2023-12-07T00:18:05;88.15;;;37.28;;
76593;SDS011;65482;50.240;14.302;2023-12-07T00:20:31;95.85;;;37.53;;
76593;SDS011;65482;50.240;14.302;2023-12-07T00:22:56;98.30;;;37.83;;
76593;SDS011;65482;50.240;14.302;2023-12-07T00:25:22;92.28;;;36.72;;
76593;SDS011;65482;50.240;14.302;2023-12-07T00:27:49;89.53;;;35.83;;
76593;SDS011;65482;50.240;14.302;2023-12-07T00:30:14;88.78;;;36.45;;
76593;SDS011;65482;50.240;14.302;2023-12-07T00:32:40;89.07;;;35.70;;
76593;SDS011;65482;50.240;14.302;2023-12-07T00:35:09;94.13;;;35.92;;
76593;SDS011;65482;50.240;14.302;2023-12-07T00:37:35;96.82;;;37.17;;
76593;SDS011;65482;50.240;14.302;2023-12-07T00:40:00;92.95;;;37.42;;
76593;SDS011;65482;50.240;14.302;2023-12-07T00:42:27;88.95;;;36.60;;
76593;SDS011;65482;50.240;14.302;2023-12-07T00:44:53;84.40;;;34.75;;
76593;SDS011;65482;50.240;14.302;2023-12-07T00:47:20;91.43;;;35.55;;
76593;SDS011;65482;50.240;14.302;2023-12-07T00:49:46;86.95;;;35.20;;
76593;SDS011;65482;50.240;14.302;2023-12-07T00:52:11;85.88;;;34.97;;
76593;SDS011;65482;50.240;14.302;2023-12-07T00:54:38;92.90;;;35.58;;
76593;SDS011;65482;50.240;14.302;2023-12-07T00:57:04;87.72;;;35.55;;
76593;SDS011;65482;50.240;14.302;2023-12-07T00:59:30;87.70;;;34.83;;
76593;SDS011;65482;50.240;14.302;2023-12-07T01:02:05;86.75;;;35.45;;
76593;SDS011;65482;50.240;14.302;2023-12-07T01:04:31;82.50;;;34.30;;
76593;SDS011;65482;50.240;14.302;2023-12-07T01:06:58;90.10;;;34.30;;
76593;SDS011;65482;50.240;14.302;2023-12-07T01:09:24;88.35;;;35.78;;
76593;SDS011;65482;50.240;14.302;2023-12-07T01:11:49;87.10;;;35.33;;
76593;SDS011;65482;50.240;14.302;2023-12-07T01:14:15;83.93;;;34.67;;
76593;SDS011;65482;50.240;14.302;2023-12-07T01:16:41;84.43;;;33.28;;
76593;SDS011;65482;50.240;14.302;2023-12-07T01:19:07;83.22;;;32.08;;
76593;SDS011;65482;50.240;14.302;2023-12-07T01:21:33;80.70;;;33.42;;
76593;SDS011;65482;50.240;14.302;2023-12-07T01:23:59;80.25;;;33.20;;
76593;SDS011;65482;50.240;14.302;2023-12-07T01:26:24;85.95;;;32.72;;
76593;SDS011;65482;50.240;14.302;2023-12-07T01:28:50;87.43;;;34.28;;
76593;SDS011;65482;50.240;14.302;2023-12-07T01:31:16;86.70;;;34.65;;
76593;SDS011;65482;50.240;14.302;2023-12-07T01:33:42;83.05;;;33.20;;
76593;SDS011;65482;50.240;14.302;2023-12-07T01:36:08;80.97;;;32.33;;
76593;SDS011;65482;50.240;14.302;2023-12-07T01:38:34;81.90;;;32.53;;
76593;SDS011;65482;50.240;14.302;2023-12-07T01:41:00;80.85;;;31.63;;
76593;SDS011;65482;50.240;14.302;2023-12-07T01:43:25;74.18;;;32.38;;
76593;SDS011;65482;50.240;14.302;2023-12-07T01:45:51;79.82;;;33.58;;
76593;SDS011;65482;50.240;14.302;2023-12-07T01:48:20;77.68;;;32.67;;
76593;SDS011;65482;50.240;14.302;2023-12-07T01:50:48;79.55;;;32.42;;
76593;SDS011;65482;50.240;14.302;2023-12-07T01:53:14;77.18;;;31.67;;
76593;SDS011;65482;50.240;14.302;2023-12-07T01:55:40;79.10;;;30.98;;
76593;SDS011;65482;50.240;14.302;2023-12-07T01:58:06;67.07;;;31.13;;
76593;SDS011;65482;50.240;14.302;2023-12-07T02:00:32;73.43;;;30.85;;
76593;SDS011;65482;50.240;14.302;2023-12-07T02:02:59;70.00;;;28.92;;
76593;SDS011;65482;50.240;14.302;2023-12-07T02:05:29;74.60;;;29.67;;
76593;SDS011;65482;50.240;14.302;2023-12-07T02:07:56;72.05;;;28.67;;
76593;SDS011;65482;50.240;14.302;2023-12-07T02:10:23;68.07;;;29.27;;
76593;SDS011;65482;50.240;14.302;2023-12-07T02:12:49;72.70;;;30.50;;
76593;SDS011;65482;50.240;14.302;2023-12-07T02:15:16;72.40;;;28.05;;
76593;SDS011;65482;50.240;14.302;2023-12-07T02:23:08;62.53;;;27.02;;
76593;SDS011;65482;50.240;14.302;2023-12-07T02:28:43;70.18;;;27.55;;
76593;SDS011;65482;50.240;14.302;2023-12-07T02:31:08;67.50;;;27.20;;
76593;SDS011;65482;50.240;14.302;2023-12-07T02:33:34;63.10;;;26.58;;
76593;SDS011;65482;50.240;14.302;2023-12-07T02:36:00;69.25;;;27.52;;
76593;SDS011;65482;50.240;14.302;2023-12-07T02:38:26;68.28;;;26.73;;
76593;SDS011;65482;50.240;14.302;2023-12-07T02:40:54;65.82;;;26.88;;
76593;SDS011;65482;50.240;14.302;2023-12-07T02:43:20;60.83;;;25.42;;
76593;SDS011;65482;50.240;14.302;2023-12-07T02:45:46;61.92;;;26.33;;
76593;SDS011;65482;50.240;14.302;2023-12-07T02:48:13;63.25;;;24.65;;
76593;SDS011;65482;50.240;14.302;2023-12-07T02:50:38;60.25;;;23.73;;
76593;SDS011;65482;50.240;14.302;2023-12-07T02:53:04;61.92;;;24.80;;
76593;SDS011;65482;50.240;14.302;2023-12-07T02:55:29;73.60;;;29.58;;
76593;SDS011;65482;50.240;14.302;2023-12-07T02:57:55;67.05;;;27.23;;
76593;SDS011;65482;50.240;14.302;2023-12-07T03:00:20;71.35;;;28.20;;
76593;SDS011;65482;50.240;14.302;2023-12-07T03:02:47;74.15;;;30.73;;
76593;SDS011;65482;50.240;14.302;2023-12-07T03:05:13;73.47;;;29.85;;
76593;SDS011;65482;50.240;14.302;2023-12-07T03:07:39;71.05;;;29.25;;
76593;SDS011;65482;50.240;14.302;2023-12-07T03:10:04;73.15;;;30.30;;
76593;SDS011;65482;50.240;14.302;2023-12-07T03:12:30;72.90;;;29.70;;
76593;SDS011;65482;50.240;14.302;2023-12-07T03:14:56;77.43;;;31.20;;
76593;SDS011;65482;50.240;14.302;2023-12-07T03:17:22;70.85;;;29.63;;
76593;SDS011;65482;50.240;14.302;2023-12-07T03:19:47;71.03;;;28.83;;
76593;SDS011;65482;50.240;14.302;2023-12-07T03:22:13;73.55;;;31.05;;
76593;SDS011;65482;50.240;14.302;2023-12-07T03:24:38;75.85;;;30.05;;
76593;SDS011;65482;50.240;14.302;2023-12-07T03:27:05;68.22;;;28.38;;
76593;SDS011;65482;50.240;14.302;2023-12-07T03:29:31;81.35;;;31.02;;
76593;SDS011;65482;50.240;14.302;2023-12-07T03:31:57;70.20;;;28.60;;
76593;SDS011;65482;50.240;14.302;2023-12-07T03:34:23;70.60;;;28.60;;
76593;SDS011;65482;50.240;14.302;2023-12-07T03:36:49;65.43;;;29.52;;
76593;SDS011;65482;50.240;14.302;2023-12-07T03:39:15;66.15;;;27.17;;
76593;SDS011;65482;50.240;14.302;2023-12-07T03:41:41;69.00;;;28.88;;
76593;SDS011;65482;50.240;14.302;2023-12-07T03:44:07;70.53;;;28.77;;
76593;SDS011;65482;50.240;14.302;2023-12-07T03:46:33;66.72;;;30.05;;
76593;SDS011;65482;50.240;14.302;2023-12-07T03:48:58;70.35;;;29.05;;
76593;SDS011;65482;50.240;14.302;2023-12-07T03:51:26;71.05;;;28.17;;
76593;SDS011;65482;50.240;14.302;2023-12-07T03:53:53;64.88;;;26.92;;
76593;SDS011;65482;50.240;14.302;2023-12-07T03:56:25;69.45;;;26.95;;
76593;SDS011;65482;50.240;14.302;2023-12-07T03:58:51;72.03;;;28.63;;
76593;SDS011;65482;50.240;14.302;2023-12-07T04:01:17;74.65;;;29.88;;
76593;SDS011;65482;50.240;14.302;2023-12-07T04:03:47;72.30;;;32.30;;
76593;SDS011;65482;50.240;14.302;2023-12-07T04:06:13;77.70;;;33.22;;
76593;SDS011;65482;50.240;14.302;2023-12-07T04:08:38;72.85;;;29.98;;
76593;SDS011;65482;50.240;14.302;2023-12-07T04:11:04;65.97;;;28.52;;
76593;SDS011;65482;50.240;14.302;2023-12-07T04:13:29;71.10;;;28.55;;
76593;SDS011;65482;50.240;14.302;2023-12-07T04:15:55;76.50;;;30.70;;
76593;SDS011;65482;50.240;14.302;2023-12-07T04:18:21;67.60;;;29.02;;
76593;SDS011;65482;50.240;14.302;2023-12-07T04:20:46;63.92;;;28.73;;
76593;SDS011;65482;50.240;14.302;2023-12-07T04:23:11;65.90;;;28.33;;
76593;SDS011;65482;50.240;14.302;2023-12-07T04:25:37;74.55;;;29.20;;
76593;SDS011;65482;50.240;14.302;2023-12-07T04:28:03;69.78;;;29.25;;
76593;SDS011;65482;50.240;14.302;2023-12-07T04:30:28;69.50;;;28.20;;
76593;SDS011;65482;50.240;14.302;2023-12-07T04:32:54;69.00;;;28.73;;
76593;SDS011;65482;50.240;14.302;2023-12-07T04:35:19;68.85;;;28.02;;
76593;SDS011;65482;50.240;14.302;2023-12-07T04:37:45;71.78;;;26.67;;
76593;SDS011;65482;50.240;14.302;2023-12-07T04:40:11;61.78;;;26.60;;
76593;SDS011;65482;50.240;14.302;2023-12-07T04:42:36;60.30;;;26.02;;
76593;SDS011;65482;50.240;14.302;2023-12-07T04:45:02;68.85;;;27.70;;
76593;SDS011;65482;50.240;14.302;2023-12-07T04:47:28;72.03;;;29.20;;
76593;SDS011;65482;50.240;14.302;2023-12-07T04:49:54;69.13;;;28.77;;
76593;SDS011;65482;50.240;14.302;2023-12-07T04:52:19;63.63;;;27.13;;
76593;SDS011;65482;50.240;14.302;2023-12-07T04:54:45;62.22;;;26.40;;
76593;SDS011;65482;50.240;14.302;2023-12-07T04:57:10;62.85;;;26.80;;
76593;SDS011;65482;50.240;14.302;2023-12-07T04:59:36;66.65;;;27.30;;
76593;SDS011;65482;50.240;14.302;2023-12-07T05:02:01;68.15;;;28.25;;
76593;SDS011;65482;50.240;14.302;2023-12-07T05:04:27;68.63;;;27.58;;
76593;SDS011;65482;50.240;14.302;2023-12-07T05:06:53;76.40;;;28.08;;
76593;SDS011;65482;50.240;14.302;2023-12-07T05:09:18;71.38;;;29.58;;
76593;SDS011;65482;50.240;14.302;2023-12-07T05:11:44;67.30;;;28.05;;
76593;SDS011;65482;50.240;14.302;2023-12-07T05:14:11;68.82;;;27.80;;
76593;SDS011;65482;50.240;14.302;2023-12-07T05:16:36;68.05;;;27.48;;
76593;SDS011;65482;50.240;14.302;2023-12-07T05:19:02;69.82;;;27.02;;
76593;SDS011;65482;50.240;14.302;2023-12-07T05:21:27;68.35;;;28.42;;
76593;SDS011;65482;50.240;14.302;2023-12-07T05:23:53;64.38;;;28.02;;
76593;SDS011;65482;50.240;14.302;2023-12-07T05:26:19;70.85;;;28.92;;
76593;SDS011;65482;50.240;14.302;2023-12-07T05:28:44;70.10;;;28.80;;
76593;SDS011;65482;50.240;14.302;2023-12-07T05:31:15;69.93;;;27.02;;
76593;SDS011;65482;50.240;14.302;2023-12-07T05:33:44;70.18;;;27.25;;
76593;SDS011;65482;50.240;14.302;2023-12-07T05:36:09;60.10;;;26.58;;
76593;SDS011;65482;50.240;14.302;2023-12-07T05:38:35;73.85;;;32.05;;
76593;SDS011;65482;50.240;14.302;2023-12-07T05:41:01;65.63;;;26.75;;
76593;SDS011;65482;50.240;14.302;2023-12-07T05:43:27;68.93;;;28.73;;
76593;SDS011;65482;50.240;14.302;2023-12-07T05:45:52;69.75;;;29.17;;
76593;SDS011;65482;50.240;14.302;2023-12-07T05:48:18;68.05;;;29.20;;
76593;SDS011;65482;50.240;14.302;2023-12-07T05:50:43;66.47;;;26.95;;
76593;SDS011;65482;50.240;14.302;2023-12-07T05:53:09;70.13;;;28.15;;
76593;SDS011;65482;50.240;14.302;2023-12-07T05:55:36;72.68;;;29.02;;
76593;SDS011;65482;50.240;14.302;2023-12-07T05:58:02;68.82;;;26.98;;
76593;SDS011;65482;50.240;14.302;2023-12-07T06:00:29;69.10;;;29.17;;
76593;SDS011;65482;50.240;14.302;2023-12-07T06:02:54;67.55;;;27.50;;
76593;SDS011;65482;50.240;14.302;2023-12-07T06:05:20;67.55;;;27.17;;
76593;SDS011;65482;50.240;14.302;2023-12-07T06:07:46;67.97;;;27.88;;
76593;SDS011;65482;50.240;14.302;2023-12-07T06:10:11;59.42;;;26.15;;
76593;SDS011;65482;50.240;14.302;2023-12-07T06:12:37;65.63;;;26.33;;
76593;SDS011;65482;50.240;14.302;2023-12-07T06:15:04;59.92;;;25.55;;
76593;SDS011;65482;50.240;14.302;2023-12-07T06:17:33;61.95;;;25.75;;
76593;SDS011;65482;50.240;14.302;2023-12-07T06:19:59;57.95;;;24.50;;
76593;SDS011;65482;50.240;14.302;2023-12-07T06:22:24;61.17;;;26.00;;
76593;SDS011;65482;50.240;14.302;2023-12-07T06:24:53;58.17;;;24.92;;
76593;SDS011;65482;50.240;14.302;2023-12-07T06:27:21;56.38;;;24.75;;
76593;SDS011;65482;50.240;14.302;2023-12-07T06:29:47;59.72;;;24.02;;
76593;SDS011;65482;50.240;14.302;2023-12-07T06:32:15;50.97;;;22.08;;
76593;SDS011;65482;50.240;14.302;2023-12-07T06:34:41;54.10;;;23.05;;
76593;SDS011;65482;50.240;14.302;2023-12-07T07:00:01;57.45;;;25.00;;
76593;SDS011;65482;50.240;14.302;2023-12-07T07:02:52;64.20;;;26.80;;
76593;SDS011;65482;50.240;14.302;2023-12-07T07:11:15;60.65;;;27.02;;
76593;SDS011;65482;50.240;14.302;2023-12-07T07:13:41;62.03;;;26.70;;
76593;SDS011;65482;50.240;14.302;2023-12-07T07:16:09;57.05;;;25.73;;
76593;SDS011;65482;50.240;14.302;2023-12-07T07:18:37;60.63;;;24.95;;
76593;SDS011;65482;50.240;14.302;2023-12-07T07:21:04;58.10;;;24.10;;
76593;SDS011;65482;50.240;14.302;2023-12-07T07:23:31;60.90;;;25.17;;
76593;SDS011;65482;50.240;14.302;2023-12-07T07:25:56;60.58;;;25.85;;
76593;SDS011;65482;50.240;14.302;2023-12-07T07:28:22;64.90;;;26.45;;
76593;SDS011;65482;50.240;14.302;2023-12-07T07:30:47;52.78;;;23.50;;
76593;SDS011;65482;50.240;14.302;2023-12-07T07:33:13;57.35;;;25.13;;
76593;SDS011;65482;50.240;14.302;2023-12-07T07:35:39;58.72;;;25.10;;
76593;SDS011;65482;50.240;14.302;2023-12-07T07:38:05;57.10;;;23.95;;
76593;SDS011;65482;50.240;14.302;2023-12-07T07:40:31;68.72;;;27.90;;
76593;SDS011;65482;50.240;14.302;2023-12-07T07:43:00;60.25;;;26.10;;
76593;SDS011;65482;50.240;14.302;2023-12-07T07:45:28;62.15;;;25.83;;
76593;SDS011;65482;50.240;14.302;2023-12-07T07:48:03;56.47;;;24.90;;
76593;SDS011;65482;50.240;14.302;2023-12-07T07:50:29;58.10;;;25.40;;
76593;SDS011;65482;50.240;14.302;2023-12-07T07:55:47;56.67;;;24.97;;
76593;SDS011;65482;50.240;14.302;2023-12-07T07:59:12;60.22;;;24.48;;
76593;SDS011;65482;50.240;14.302;2023-12-07T08:02:12;63.22;;;27.20;;
76593;SDS011;65482;50.240;14.302;2023-12-07T08:09:08;57.05;;;23.75;;
76593;SDS011;65482;50.240;14.302;2023-12-07T08:22:06;61.25;;;24.23;;
76593;SDS011;65482;50.240;14.302;2023-12-07T08:25:28;49.92;;;22.42;;
76593;SDS011;65482;50.240;14.302;2023-12-07T08:43:40;63.58;;;28.98;;
76593;SDS011;65482;50.240;14.302;2023-12-07T08:46:09;85.60;;;36.13;;
76593;SDS011;65482;50.240;14.302;2023-12-07T08:48:40;96.20;;;42.63;;
76593;SDS011;65482;50.240;14.302;2023-12-07T08:51:06;88.32;;;40.47;;
76593;SDS011;65482;50.240;14.302;2023-12-07T08:53:34;84.20;;;37.15;;
76593;SDS011;65482;50.240;14.302;2023-12-07T08:56:01;74.72;;;33.40;;
76593;SDS011;65482;50.240;14.302;2023-12-07T08:58:27;65.55;;;28.85;;
76593;SDS011;65482;50.240;14.302;2023-12-07T09:00:53;61.30;;;27.38;;
76593;SDS011;65482;50.240;14.302;2023-12-07T09:03:18;61.92;;;27.55;;
76593;SDS011;65482;50.240;14.302;2023-12-07T09:05:44;69.10;;;26.88;;
76593;SDS011;65482;50.240;14.302;2023-12-07T09:08:09;59.78;;;25.27;;
76593;SDS011;65482;50.240;14.302;2023-12-07T09:10:35;48.13;;;22.73;;
76593;SDS011;65482;50.240;14.302;2023-12-07T09:13:01;44.33;;;21.15;;
76593;SDS011;65482;50.240;14.302;2023-12-07T09:15:26;42.55;;;20.50;;
76593;SDS011;65482;50.240;14.302;2023-12-07T09:17:52;52.55;;;24.70;;
76593;SDS011;65482;50.240;14.302;2023-12-07T09:20:19;50.22;;;25.02;;
76593;SDS011;65482;50.240;14.302;2023-12-07T09:22:45;59.83;;;29.10;;
76593;SDS011;65482;50.240;14.302;2023-12-07T09:25:12;56.13;;;27.58;;
76593;SDS011;65482;50.240;14.302;2023-12-07T09:27:38;50.63;;;25.58;;
76593;SDS011;65482;50.240;14.302;2023-12-07T09:30:05;50.33;;;24.10;;
76593;SDS011;65482;50.240;14.302;2023-12-07T09:32:32;53.65;;;25.08;;
76593;SDS011;65482;50.240;14.302;2023-12-07T09:35:04;54.03;;;23.35;;
76593;SDS011;65482;50.240;14.302;2023-12-07T09:37:32;50.58;;;22.73;;
76593;SDS011;65482;50.240;14.302;2023-12-07T09:39:59;36.63;;;18.23;;
76593;SDS011;65482;50.240;14.302;2023-12-07T09:42:29;59.92;;;26.02;;
76593;SDS011;65482;50.240;14.302;2023-12-07T09:44:55;52.92;;;23.80;;
76593;SDS011;65482;50.240;14.302;2023-12-07T09:47:21;49.55;;;23.65;;
76593;SDS011;65482;50.240;14.302;2023-12-07T09:49:48;44.83;;;19.48;;
76593;SDS011;65482;50.240;14.302;2023-12-07T09:52:13;37.63;;;16.52;;
76593;SDS011;65482;50.240;14.302;2023-12-07T09:54:41;34.13;;;16.38;;
76593;SDS011;65482;50.240;14.302;2023-12-07T09:57:07;34.17;;;16.38;;
76593;SDS011;65482;50.240;14.302;2023-12-07T09:59:35;35.40;;;16.20;;
76593;SDS011;65482;50.240;14.302;2023-12-07T10:02:01;41.10;;;17.85;;
76593;SDS011;65482;50.240;14.302;2023-12-07T10:04:27;33.85;;;16.20;;
76593;SDS011;65482;50.240;14.302;2023-12-07T10:06:53;33.45;;;16.70;;
76593;SDS011;65482;50.240;14.302;2023-12-07T10:09:19;29.73;;;16.70;;
76593;SDS011;65482;50.240;14.302;2023-12-07T10:11:46;35.85;;;17.85;;
76593;SDS011;65482;50.240;14.302;2023-12-07T10:14:13;71.85;;;28.70;;
76593;SDS011;65482;50.240;14.302;2023-12-07T10:16:53;62.97;;;26.70;;
76593;SDS011;65482;50.240;14.302;2023-12-07T10:19:24;47.75;;;22.65;;
76593;SDS011;65482;50.240;14.302;2023-12-07T10:22:21;40.97;;;19.60;;
76593;SDS011;65482;50.240;14.302;2023-12-07T10:25:32;32.17;;;16.10;;
76593;SDS011;65482;50.240;14.302;2023-12-07T10:28:13;26.20;;;14.85;;
76593;SDS011;65482;50.240;14.302;2023-12-07T10:30:48;21.98;;;13.05;;
76593;SDS011;65482;50.240;14.302;2023-12-07T10:33:37;21.50;;;13.15;;
76593;SDS011;65482;50.240;14.302;2023-12-07T10:36:26;24.00;;;14.07;;
76593;SDS011;65482;50.240;14.302;2023-12-07T10:39:07;26.42;;;16.42;;
76593;SDS011;65482;50.240;14.302;2023-12-07T10:41:33;43.13;;;22.90;;
76593;SDS011;65482;50.240;14.302;2023-12-07T10:44:41;63.58;;;28.60;;
76593;SDS011;65482;50.240;14.302;2023-12-07T10:47:32;64.53;;;31.08;;
76593;SDS011;65482;50.240;14.302;2023-12-07T10:50:05;52.88;;;26.30;;
76593;SDS011;65482;50.240;14.302;2023-12-07T10:52:45;40.65;;;20.48;;
76593;SDS011;65482;50.240;14.302;2023-12-07T10:55:17;34.22;;;17.65;;
76593;SDS011;65482;50.240;14.302;2023-12-07T10:57:46;26.88;;;13.95;;
76593;SDS011;65482;50.240;14.302;2023-12-07T11:00:13;25.65;;;13.00;;
76593;SDS011;65482;50.240;14.302;2023-12-07T11:02:39;24.35;;;12.15;;
76593;SDS011;65482;50.240;14.302;2023-12-07T11:05:06;24.73;;;11.82;;
76593;SDS011;65482;50.240;14.302;2023-12-07T11:07:38;22.60;;;11.55;;
76593;SDS011;65482;50.240;14.302;2023-12-07T11:10:16;17.02;;;9.23;;
76593;SDS011;65482;50.240;14.302;2023-12-07T11:12:50;20.73;;;10.65;;
76593;SDS011;65482;50.240;14.302;2023-12-07T11:15:41;20.38;;;9.55;;
76593;SDS011;65482;50.240;14.302;2023-12-07T11:18:34;23.10;;;9.25;;
76593;SDS011;65482;50.240;14.302;2023-12-07T11:21:00;16.42;;;9.07;;
76593;SDS011;65482;50.240;14.302;2023-12-07T11:23:27;18.27;;;8.63;;
76593;SDS011;65482;50.240;14.302;2023-12-07T11:25:57;15.48;;;8.77;;
76593;SDS011;65482;50.240;14.302;2023-12-07T11:28:35;15.65;;;8.10;;
76593;SDS011;65482;50.240;14.302;2023-12-07T11:31:05;16.75;;;8.82;;
76593;SDS011;65482;50.240;14.302;2023-12-07T11:33:32;16.50;;;8.20;;
76593;SDS011;65482;50.240;14.302;2023-12-07T11:36:05;14.32;;;8.30;;
76593;SDS011;65482;50.240;14.302;2023-12-07T11:43:59;11.45;;;6.68;;
76593;SDS011;65482;50.240;14.302;2023-12-07T11:46:25;13.10;;;7.28;;
76593;SDS011;65482;50.240;14.302;2023-12-07T11:48:50;23.77;;;11.57;;
76593;SDS011;65482;50.240;14.302;2023-12-07T11:51:17;58.10;;;22.08;;
76593;SDS011;65482;50.240;14.302;2023-12-07T11:53:43;54.92;;;20.65;;
76593;SDS011;65482;50.240;14.302;2023-12-07T11:56:09;42.08;;;15.40;;
76593;SDS011;65482;50.240;14.302;2023-12-07T11:58:37;31.85;;;13.02;;
76593;SDS011;65482;50.240;14.302;2023-12-07T12:01:03;24.88;;;10.65;;
76593;SDS011;65482;50.240;14.302;2023-12-07T12:03:35;27.70;;;10.00;;
76593;SDS011;65482;50.240;14.302;2023-12-07T12:06:03;19.73;;;9.90;;
76593;SDS011;65482;50.240;14.302;2023-12-07T12:08:30;20.45;;;10.38;;
76593;SDS011;65482;50.240;14.302;2023-12-07T12:10:56;19.60;;;10.63;;
76593;SDS011;65482;50.240;14.302;2023-12-07T12:13:28;20.02;;;10.13;;
76593;SDS011;65482;50.240;14.302;2023-12-07T12:15:55;18.25;;;9.68;;
76593;SDS011;65482;50.240;14.302;2023-12-07T12:18:24;16.00;;;9.35;;
76593;SDS011;65482;50.240;14.302;2023-12-07T12:20:53;19.40;;;9.55;;
76593;SDS011;65482;50.240;14.302;2023-12-07T12:23:20;17.50;;;9.90;;
76593;SDS011;65482;50.240;14.302;2023-12-07T12:25:46;16.45;;;9.50;;
76593;SDS011;65482;50.240;14.302;2023-12-07T12:28:14;23.08;;;11.00;;
76593;SDS011;65482;50.240;14.302;2023-12-07T12:30:41;21.52;;;11.90;;
76593;SDS011;65482;50.240;14.302;2023-12-07T12:33:07;18.70;;;10.07;;
76593;SDS011;65482;50.240;14.302;2023-12-07T12:35:33;16.17;;;10.00;;
76593;SDS011;65482;50.240;14.302;2023-12-07T12:37:59;20.45;;;10.95;;
76593;SDS011;65482;50.240;14.302;2023-12-07T12:40:27;21.65;;;11.38;;
76593;SDS011;65482;50.240;14.302;2023-12-07T12:42:55;19.67;;;11.48;;
76593;SDS011;65482;50.240;14.302;2023-12-07T12:45:20;22.17;;;10.80;;
76593;SDS011;65482;50.240;14.302;2023-12-07T12:47:47;24.77;;;13.90;;
76593;SDS011;65482;50.240;14.302;2023-12-07T12:50:31;27.42;;;14.80;;
76593;SDS011;65482;50.240;14.302;2023-12-07T12:52:59;23.25;;;13.02;;
76593;SDS011;65482;50.240;14.302;2023-12-07T12:55:25;21.65;;;11.93;;
76593;SDS011;65482;50.240;14.302;2023-12-07T12:57:52;22.70;;;12.35;;
76593;SDS011;65482;50.240;14.302;2023-12-07T13:00:17;20.42;;;11.85;;
76593;SDS011;65482;50.240;14.302;2023-12-07T13:02:44;19.77;;;12.02;;
76593;SDS011;65482;50.240;14.302;2023-12-07T13:05:10;18.45;;;11.05;;
76593;SDS011;65482;50.240;14.302;2023-12-07T13:07:36;18.92;;;11.40;;
76593;SDS011;65482;50.240;14.302;2023-12-07T13:10:01;19.38;;;10.55;;
76593;SDS011;65482;50.240;14.302;2023-12-07T13:12:27;18.25;;;9.65;;
76593;SDS011;65482;50.240;14.302;2023-12-07T13:14:55;20.88;;;10.63;;
76593;SDS011;65482;50.240;14.302;2023-12-07T13:17:21;22.38;;;10.15;;
76593;SDS011;65482;50.240;14.302;2023-12-07T13:23:04;20.97;;;10.37;;
76593;SDS011;65482;50.240;14.302;2023-12-07T13:25:56;21.77;;;11.18;;
76593;SDS011;65482;50.240;14.302;2023-12-07T13:28:22;20.77;;;10.50;;
76593;SDS011;65482;50.240;14.302;2023-12-07T13:30:49;23.80;;;10.55;;
76593;SDS011;65482;50.240;14.302;2023-12-07T13:36:14;21.20;;;10.63;;
76593;SDS011;65482;50.240;14.302;2023-12-07T13:47:00;23.45;;;11.00;;
76593;SDS011;65482;50.240;14.302;2023-12-07T13:49:52;24.02;;;11.27;;
76593;SDS011;65482;50.240;14.302;2023-12-07T13:52:18;20.55;;;10.23;;
76593;SDS011;65482;50.240;14.302;2023-12-07T13:54:44;20.02;;;10.73;;
76593;SDS011;65482;50.240;14.302;2023-12-07T13:57:10;21.30;;;11.13;;
76593;SDS011;65482;50.240;14.302;2023-12-07T13:59:37;24.55;;;10.80;;
76593;SDS011;65482;50.240;14.302;2023-12-07T14:02:03;25.95;;;11.77;;
76593;SDS011;65482;50.240;14.302;2023-12-07T14:04:29;24.85;;;11.90;;
76593;SDS011;65482;50.240;14.302;2023-12-07T14:07:06;26.27;;;12.40;;
76593;SDS011;65482;50.240;14.302;2023-12-07T14:09:36;28.02;;;13.27;;
76593;SDS011;65482;50.240;14.302;2023-12-07T14:12:03;44.38;;;17.52;;
76593;SDS011;65482;50.240;14.302;2023-12-07T14:44:26;182.25;;;42.47;;
76593;SDS011;65482;50.240;14.302;2023-12-07T14:51:40;143.23;;;34.28;;
76593;SDS011;65482;50.240;14.302;2023-12-07T14:59:17;127.68;;;33.42;;
76593;SDS011;65482;50.240;14.302;2023-12-07T15:01:45;153.80;;;37.97;;
76593;SDS011;65482;50.240;14.302;2023-12-07T15:04:10;129.00;;;34.22;;
76593;SDS011;65482;50.240;14.302;2023-12-07T15:06:36;110.40;;;31.15;;
76593;SDS011;65482;50.240;14.302;2023-12-07T15:09:02;96.80;;;30.23;;
76593;SDS011;65482;50.240;14.302;2023-12-07T15:11:33;75.10;;;29.33;;
76593;SDS011;65482;50.240;14.302;2023-12-07T15:14:01;70.97;;;28.98;;
76593;SDS011;65482;50.240;14.302;2023-12-07T15:16:28;75.50;;;28.40;;
76593;SDS011;65482;50.240;14.302;2023-12-07T15:18:53;66.18;;;26.80;;
76593;SDS011;65482;50.240;14.302;2023-12-07T15:21:19;78.00;;;28.42;;
76593;SDS011;65482;50.240;14.302;2023-12-07T15:23:45;80.47;;;31.83;;
76593;SDS011;65482;50.240;14.302;2023-12-07T15:26:11;75.00;;;29.52;;
76593;SDS011;65482;50.240;14.302;2023-12-07T15:28:37;75.07;;;29.13;;
76593;SDS011;65482;50.240;14.302;2023-12-07T15:31:05;72.40;;;29.42;;
76593;SDS011;65482;50.240;14.302;2023-12-07T15:33:32;72.10;;;28.98;;
76593;SDS011;65482;50.240;14.302;2023-12-07T15:35:58;78.60;;;30.23;;
76593;SDS011;65482;50.240;14.302;2023-12-07T15:38:25;66.70;;;28.55;;
76593;SDS011;65482;50.240;14.302;2023-12-07T15:40:51;73.40;;;27.15;;
76593;SDS011;65482;50.240;14.302;2023-12-07T15:43:20;63.60;;;27.08;;
76593;SDS011;65482;50.240;14.302;2023-12-07T15:45:47;71.75;;;29.08;;
76593;SDS011;65482;50.240;14.302;2023-12-07T15:48:14;108.93;;;33.75;;
76593;SDS011;65482;50.240;14.302;2023-12-07T15:50:40;117.80;;;35.50;;
76593;SDS011;65482;50.240;14.302;2023-12-07T15:53:06;84.78;;;28.60;;
76593;SDS011;65482;50.240;14.302;2023-12-07T15:55:32;91.40;;;30.63;;
76593;SDS011;65482;50.240;14.302;2023-12-07T15:57:58;99.32;;;31.38;;
76593;SDS011;65482;50.240;14.302;2023-12-07T16:00:24;108.80;;;35.05;;
76593;SDS011;65482;50.240;14.302;2023-12-07T16:02:49;100.47;;;33.40;;
76593;SDS011;65482;50.240;14.302;2023-12-07T16:05:15;94.57;;;31.75;;
76593;SDS011;65482;50.240;14.302;2023-12-07T16:07:40;108.30;;;34.08;;
76593;SDS011;65482;50.240;14.302;2023-12-07T16:10:07;134.30;;;41.15;;
76593;SDS011;65482;50.240;14.302;2023-12-07T16:12:36;143.40;;;41.15;;
76593;SDS011;65482;50.240;14.302;2023-12-07T16:15:02;112.63;;;35.75;;
76593;SDS011;65482;50.240;14.302;2023-12-07T16:17:27;111.68;;;34.55;;
76593;SDS011;65482;50.240;14.302;2023-12-07T16:19:54;91.65;;;31.77;;
76593;SDS011;65482;50.240;14.302;2023-12-07T16:22:20;94.88;;;31.00;;
76593;SDS011;65482;50.240;14.302;2023-12-07T16:24:46;94.65;;;31.58;;